Time;durP1;ratioP1;P1;durP2;ratioP2;P2;SDS_P1;SDS_P2;PMS_P1;PMS_P2;Temp;Humidity;BMP_temperature;BMP_pressure;BME280_temperature;BME280_humidity;BME280_pressure;Samples;Min_cycle;Max_cycle;Signal;HPM_P1;HPM_P2
2023/11/10 00:02:02;;;;;;;12.23;8.60;;;;;;;5.22;60.56;95321.13;5006962;28;20390;-75
2023/11/10 00:04:28;;;;;;;13.85;8.65;;;;;;;5.21;60.56;95320.34;5022916;28;20411;-76
2023/11/10 00:06:53;;;;;;;15.80;9.50;;;;;;;5.26;60.21;95319.94;5016760;28;20041;-75
2023/11/10 00:09:18;;;;;;;13.57;8.85;;;;;;;5.31;60.22;95327.72;5006355;28;20094;-75
2023/11/10 00:11:44;;;;;;;15.35;9.23;;;;;;;5.22;60.21;95316.47;5009274;28;20045;-75
2023/11/10 00:14:10;;;;;;;14.73;10.40;;;;;;;5.14;60.27;95323.09;5006679;28;20481;-75
2023/11/10 00:16:36;;;;;;;17.98;9.15;;;;;;;5.12;60.56;95314.53;5008892;28;20044;-75
2023/11/10 00:19:03;;;;;;;15.80;9.07;;;;;;;5.13;60.33;95309.84;5023136;28;20029;-75
2023/11/10 00:21:29;;;;;;;16.23;9.60;;;;;;;5.07;60.53;95312.19;5026662;28;20040;-74
2023/11/10 00:23:54;;;;;;;12.18;9.18;;;;;;;5.06;60.50;95307.94;5025389;28;20025;-74
2023/11/10 00:26:20;;;;;;;14.82;9.32;;;;;;;5.07;60.44;95315.69;5015625;28;20037;-74
2023/11/10 00:28:46;;;;;;;14.27;8.73;;;;;;;5.07;60.35;95318.44;5044058;28;20030;-74
2023/11/10 00:31:11;;;;;;;16.73;9.82;;;;;;;5.03;60.40;95305.97;5021043;28;20088;-74
2023/11/10 00:33:37;;;;;;;15.00;8.93;;;;;;;5.04;60.45;95312.97;5005790;28;20065;-74
2023/11/10 00:36:03;;;;;;;14.45;10.43;;;;;;;5.03;60.58;95312.19;5006392;28;20021;-75
2023/11/10 00:38:29;;;;;;;13.57;9.40;;;;;;;5.00;60.31;95318.44;5005561;28;20125;-74
2023/11/10 00:40:54;;;;;;;13.55;9.95;;;;;;;4.96;60.36;95308.72;5037835;28;20117;-76
2023/11/10 00:43:20;;;;;;;13.93;8.13;;;;;;;4.96;60.45;95311.44;5008042;28;20424;-73
2023/11/10 00:45:46;;;;;;;14.02;9.38;;;;;;;4.91;60.63;95306.38;5023818;28;20033;-74
2023/11/10 00:48:11;;;;;;;18.63;9.60;;;;;;;4.85;61.07;95308.72;5005829;28;20029;-75
2023/11/10 00:50:36;;;;;;;13.25;9.15;;;;;;;4.85;61.17;95305.22;5025287;28;20035;-74
2023/11/10 00:53:02;;;;;;;17.50;9.75;;;;;;;4.85;61.23;95308.72;5037613;28;20033;-74
2023/11/10 00:55:27;;;;;;;17.38;10.02;;;;;;;4.86;60.93;95301.31;5037471;28;20033;-74
2023/11/10 00:57:53;;;;;;;12.55;9.10;;;;;;;4.84;61.06;95295.50;5018023;28;20029;-75
2023/11/10 01:00:19;;;;;;;14.20;9.52;;;;;;;4.82;61.28;95301.34;5018043;28;20512;-75
2023/11/10 01:02:44;;;;;;;16.70;9.20;;;;;;;4.79;61.39;95297.44;5007607;28;20034;-75
2023/11/10 01:05:13;;;;;;;11.90;9.05;;;;;;;4.73;61.50;95300.94;5003807;28;20076;-76
2023/11/10 01:07:39;;;;;;;12.18;8.82;;;;;;;4.75;61.37;95304.06;5015724;28;20120;-76
2023/11/10 01:10:05;;;;;;;15.40;9.70;;;;;;;4.77;61.45;95299.00;5023982;28;20034;-75
2023/11/10 01:12:31;;;;;;;15.68;10.90;;;;;;;4.76;61.73;95298.22;5007420;28;20504;-75
2023/11/10 01:14:57;;;;;;;13.52;9.80;;;;;;;4.73;61.76;95293.56;5040654;28;20033;-75
2023/11/10 01:17:22;;;;;;;14.10;9.40;;;;;;;4.65;62.05;95297.47;5042766;28;20036;-74
2023/11/10 01:19:48;;;;;;;18.38;10.25;;;;;;;4.64;61.91;95293.16;5024220;28;20049;-76
2023/11/10 01:22:13;;;;;;;16.15;9.32;;;;;;;4.60;62.01;95281.50;5013854;28;20034;-73
2023/11/10 01:24:39;;;;;;;14.98;9.27;;;;;;;4.63;61.96;95288.88;5007396;28;20037;-74
2023/11/10 01:27:04;;;;;;;13.90;9.18;;;;;;;4.51;62.10;95284.59;5006441;28;20137;-73
2023/11/10 01:29:30;;;;;;;12.32;9.18;;;;;;;4.52;61.97;95286.16;5013218;28;20028;-74
2023/11/10 01:31:55;;;;;;;17.08;9.80;;;;;;;4.50;61.94;95293.94;5027483;28;20432;-74
2023/11/10 01:34:21;;;;;;;16.60;10.07;;;;;;;4.53;62.03;95285.00;5005958;28;20025;-74
2023/11/10 01:36:47;;;;;;;16.65;10.80;;;;;;;4.56;62.16;95283.44;5023969;28;20431;-75
2023/11/10 01:39:12;;;;;;;15.10;10.48;;;;;;;4.58;62.07;95281.09;5018186;28;20069;-75
2023/11/10 01:41:38;;;;;;;15.95;9.15;;;;;;;4.60;61.84;95288.91;5007289;28;20441;-75
2023/11/10 01:44:04;;;;;;;14.70;8.82;;;;;;;4.62;61.81;95278.38;5022782;28;20041;-74
2023/11/10 01:46:45;;;;;;;16.42;9.27;;;;;;;4.56;61.90;95282.66;5011051;28;20033;-74
2023/11/10 01:49:13;;;;;;;13.85;10.05;;;;;;;4.54;61.90;95280.34;5010474;28;20053;-75
2023/11/10 01:51:38;;;;;;;13.75;9.63;;;;;;;4.55;61.93;95281.13;5051471;28;20014;-74
2023/11/10 01:54:05;;;;;;;15.88;9.43;;;;;;;4.49;62.08;95267.13;5014689;28;20087;-75
2023/11/10 01:56:32;;;;;;;14.98;10.00;;;;;;;4.51;62.39;95265.56;5040301;28;20417;-74
2023/11/10 01:58:59;;;;;;;14.30;10.57;;;;;;;4.48;62.65;95263.63;5044320;28;20115;-74
2023/11/10 02:01:24;;;;;;;13.13;9.60;;;;;;;4.48;62.62;95263.63;5024977;28;20435;-74
2023/11/10 02:03:50;;;;;;;13.45;9.02;;;;;;;4.49;62.72;95265.16;5009612;28;20037;-74
2023/11/10 02:06:16;;;;;;;13.57;9.45;;;;;;;4.52;62.64;95255.44;5017204;28;20036;-74
2023/11/10 02:08:41;;;;;;;15.20;9.00;;;;;;;4.51;62.67;95249.22;5019689;28;20022;-75
2023/11/10 02:11:07;;;;;;;15.43;9.05;;;;;;;4.52;62.82;95253.47;5009189;28;20113;-75
2023/11/10 02:13:32;;;;;;;13.93;9.30;;;;;;;4.58;62.72;95259.31;5011942;28;20491;-74
2023/11/10 02:15:57;;;;;;;14.00;9.43;;;;;;;4.58;62.60;95256.59;5041201;28;20485;-74
2023/11/10 02:18:24;;;;;;;16.05;9.88;;;;;;;4.61;62.98;95258.56;5039459;28;20014;-75
2023/11/10 02:20:50;;;;;;;13.65;9.50;;;;;;;4.62;62.87;95251.16;5023029;28;20474;-74
2023/11/10 02:23:17;;;;;;;15.13;10.35;;;;;;;4.64;62.53;95252.31;5029123;28;20038;-76
2023/11/10 02:25:42;;;;;;;14.38;9.82;;;;;;;4.69;62.52;95257.38;5024591;28;20029;-75
2023/11/10 02:28:08;;;;;;;17.05;9.63;;;;;;;4.63;62.71;95253.47;5027312;28;20461;-73
2023/11/10 02:30:33;;;;;;;15.35;10.05;;;;;;;4.66;62.48;95244.53;5008725;28;20175;-74
2023/11/10 02:32:59;;;;;;;15.48;9.65;;;;;;;4.65;62.84;95239.50;5020739;28;20105;-74
2023/11/10 02:35:24;;;;;;;14.98;10.02;;;;;;;4.60;62.92;95242.63;5034530;28;20036;-74
2023/11/10 02:37:50;;;;;;;14.45;9.60;;;;;;;4.62;62.97;95243.00;5048677;28;20490;-74
2023/11/10 02:40:15;;;;;;;13.18;9.48;;;;;;;4.61;63.05;95239.50;5015563;28;20029;-74
2023/11/10 02:42:40;;;;;;;17.05;10.88;;;;;;;4.63;62.64;95252.72;5028251;28;20068;-74
2023/11/10 02:45:06;;;;;;;16.27;10.80;;;;;;;4.69;63.04;95241.03;5012415;28;20033;-73
2023/11/10 02:47:32;;;;;;;14.75;9.90;;;;;;;4.69;62.94;95246.47;5040030;28;20053;-75
2023/11/10 02:49:57;;;;;;;18.52;10.55;;;;;;;4.67;63.18;95234.44;5009401;28;20033;-75
2023/11/10 02:52:23;;;;;;;16.63;9.55;;;;;;;4.65;63.24;95229.38;5015325;28;20034;-74
2023/11/10 02:54:48;;;;;;;15.13;9.35;;;;;;;4.65;63.41;95237.56;5008680;28;20114;-74
2023/11/10 02:57:14;;;;;;;15.45;9.55;;;;;;;4.56;63.50;95215.38;5007890;28;20449;-74
2023/11/10 02:59:39;;;;;;;16.02;9.80;;;;;;;4.67;63.21;95237.16;5008577;28;20053;-75
2023/11/10 03:02:05;;;;;;;13.85;9.98;;;;;;;4.62;63.17;95229.38;5022843;28;20084;-75
2023/11/10 03:04:30;;;;;;;13.85;9.27;;;;;;;4.65;62.83;95234.06;5009578;28;20022;-75
2023/11/10 03:06:56;;;;;;;16.33;9.57;;;;;;;4.69;62.46;95234.81;5020766;28;20108;-74
2023/11/10 03:09:23;;;;;;;17.85;10.38;;;;;;;4.63;62.63;95239.09;5016597;28;20037;-74
2023/11/10 03:11:49;;;;;;;17.42;10.75;;;;;;;4.62;62.67;95234.81;5012245;28;20026;-76
2023/11/10 03:14:14;;;;;;;16.38;10.80;;;;;;;4.69;62.37;95243.75;5040641;28;20100;-75
2023/11/10 03:16:42;;;;;;;15.63;9.80;;;;;;;4.72;62.44;95245.69;5027510;28;20137;-75
2023/11/10 03:19:09;;;;;;;14.68;9.57;;;;;;;4.66;62.94;95232.88;5015802;28;20051;-74
2023/11/10 03:21:34;;;;;;;16.30;9.68;;;;;;;4.69;63.34;95232.06;5008140;28;20034;-75
2023/11/10 03:23:59;;;;;;;18.38;10.82;;;;;;;4.72;63.32;95226.63;5007318;28;20034;-75
2023/11/10 03:26:25;;;;;;;14.75;9.50;;;;;;;4.69;63.32;95235.56;5019405;28;20413;-74
2023/11/10 03:28:50;;;;;;;18.92;9.82;;;;;;;4.71;63.34;95224.31;5007251;28;20069;-75
2023/11/10 03:31:16;;;;;;;16.60;9.30;;;;;;;4.77;62.94;95215.34;5042174;28;20099;-74
2023/11/10 03:33:42;;;;;;;12.80;9.35;;;;;;;4.75;63.01;95214.16;5025017;28;20554;-74
2023/11/10 03:36:09;;;;;;;12.93;8.68;;;;;;;4.80;63.03;95214.53;5021478;28;20040;-74
2023/11/10 03:38:34;;;;;;;14.38;9.48;;;;;;;4.81;63.09;95201.69;5033135;28;20546;-74
2023/11/10 03:40:59;;;;;;;15.02;9.45;;;;;;;4.86;63.08;95212.19;5050478;28;20049;-75
2023/11/10 03:43:25;;;;;;;9.77;7.85;;;;;;;4.85;61.80;95204.44;5013668;28;20034;-74
2023/11/10 03:45:51;;;;;;;12.07;7.00;;;;;;;4.88;61.42;95192.75;5016253;28;20111;-74
2023/11/10 03:48:17;;;;;;;17.50;9.23;;;;;;;4.86;62.63;95187.69;5026821;28;20039;-74
2023/11/10 03:50:43;;;;;;;16.00;9.02;;;;;;;4.91;62.60;95183.78;5041763;28;20120;-74
2023/11/10 03:53:08;;;;;;;15.90;10.23;;;;;;;4.92;62.90;95183.38;5018636;28;20030;-74
2023/11/10 03:55:34;;;;;;;14.25;8.90;;;;;;;4.96;62.84;95186.88;5025782;28;20029;-74
2023/11/10 03:57:59;;;;;;;15.07;9.05;;;;;;;4.96;62.93;95183.38;5013073;28;20034;-74
2023/11/10 04:00:24;;;;;;;13.65;8.63;;;;;;;4.97;62.30;95185.69;5022770;28;20464;-74
2023/11/10 04:02:50;;;;;;;15.02;9.38;;;;;;;4.97;62.75;95190.38;5007562;28;20041;-74
2023/11/10 04:05:16;;;;;;;13.63;9.20;;;;;;;5.05;62.63;95184.53;5006837;28;20642;-76
2023/11/10 04:07:41;;;;;;;14.93;8.68;;;;;;;4.97;63.06;95165.84;5015677;28;20032;-74
2023/11/10 04:10:07;;;;;;;16.88;9.40;;;;;;;4.95;63.02;95174.44;5013000;28;20065;-75
2023/11/10 04:12:32;;;;;;;15.77;10.70;;;;;;;4.96;62.89;95175.97;5007581;28;20038;-76
2023/11/10 04:14:58;;;;;;;15.05;9.95;;;;;;;4.97;62.68;95153.00;5024382;28;20026;-73
2023/11/10 04:17:24;;;;;;;15.23;9.27;;;;;;;4.98;62.60;95168.19;5023438;28;20106;-75
2023/11/10 04:19:50;;;;;;;14.75;8.80;;;;;;;4.95;62.27;95174.44;5050349;28;20228;-75
2023/11/10 04:22:15;;;;;;;13.63;8.68;;;;;;;4.88;62.20;95169.00;5015985;28;20032;-75
2023/11/10 04:24:42;;;;;;;13.85;8.20;;;;;;;4.93;62.27;95189.59;5037859;28;20029;-75
2023/11/10 04:27:08;;;;;;;12.15;8.43;;;;;;;4.90;62.10;95172.09;5028295;28;20559;-75
2023/11/10 04:29:33;;;;;;;15.45;9.35;;;;;;;4.87;62.20;95174.84;5006582;28;20125;-75
2023/11/10 04:31:59;;;;;;;12.48;9.55;;;;;;;4.91;62.15;95172.88;5006477;28;20357;-75
2023/11/10 04:34:25;;;;;;;13.60;9.30;;;;;;;4.95;62.39;95174.44;5019315;28;20476;-75
2023/11/10 04:36:51;;;;;;;13.73;8.77;;;;;;;5.01;62.15;95161.19;5006011;28;20499;-76
2023/11/10 04:39:17;;;;;;;17.20;10.20;;;;;;;4.99;62.34;95163.53;5012815;28;20053;-76
2023/11/10 04:41:42;;;;;;;16.35;10.10;;;;;;;4.99;62.39;95175.22;5037976;28;20162;-76
2023/11/10 04:44:08;;;;;;;16.15;10.10;;;;;;;4.88;62.63;95160.84;5014101;28;20685;-76
2023/11/10 04:46:38;;;;;;;18.02;10.52;;;;;;;4.95;62.72;95163.53;5013941;28;20025;-76
2023/11/10 04:49:05;;;;;;;16.90;10.38;;;;;;;4.98;62.72;95165.44;5039345;28;20038;-76
2023/11/10 04:51:31;;;;;;;14.30;10.15;;;;;;;5.03;62.51;95167.00;5019195;28;20098;-75
2023/11/10 04:53:56;;;;;;;18.65;10.48;;;;;;;5.00;62.87;95168.59;5017378;28;20038;-75
2023/11/10 04:56:22;;;;;;;15.00;10.20;;;;;;;4.99;62.89;95167.03;5026420;28;20120;-75
2023/11/10 04:58:47;;;;;;;15.65;9.93;;;;;;;4.97;62.92;95155.72;5025220;28;20051;-74
2023/11/10 05:01:12;;;;;;;16.65;11.15;;;;;;;4.96;63.16;95156.91;5041238;28;20033;-74
2023/11/10 05:03:38;;;;;;;20.83;11.13;;;;;;;4.96;63.04;95159.63;5040428;28;20171;-74
2023/11/10 05:06:04;;;;;;;21.38;12.00;;;;;;;4.95;62.74;95157.31;5014972;28;20368;-75
2023/11/10 05:08:29;;;;;;;22.48;12.00;;;;;;;4.89;63.14;95156.94;5016873;28;20435;-75
2023/11/10 05:10:55;;;;;;;19.13;12.70;;;;;;;4.89;63.25;95154.22;5023357;28;20098;-74
2023/11/10 05:13:20;;;;;;;19.88;11.85;;;;;;;4.87;63.24;95159.25;5018724;28;20107;-76
2023/11/10 05:15:45;;;;;;;18.33;11.68;;;;;;;4.86;63.03;95160.44;5036420;28;20022;-75
2023/11/10 05:18:14;;;;;;;19.45;11.50;;;;;;;4.91;62.99;95160.03;5019554;28;20034;-76
2023/11/10 05:20:40;;;;;;;19.45;11.90;;;;;;;4.90;63.02;95166.66;5008699;28;20053;-75
2023/11/10 05:23:05;;;;;;;22.25;12.63;;;;;;;4.91;63.02;95162.75;5007221;28;20738;-76
2023/11/10 05:25:30;;;;;;;20.23;12.32;;;;;;;4.90;62.95;95163.94;5005656;28;20120;-76
2023/11/10 05:27:56;;;;;;;16.70;11.65;;;;;;;4.91;63.27;95160.03;5039523;28;20038;-76
2023/11/10 05:30:22;;;;;;;20.08;11.45;;;;;;;4.90;63.08;95163.94;5008001;28;20034;-75
2023/11/10 05:32:47;;;;;;;22.13;12.15;;;;;;;4.94;63.04;95155.75;5024434;28;20045;-76
2023/11/10 05:35:13;;;;;;;17.30;11.23;;;;;;;4.92;62.88;95161.59;5023891;28;20037;-76
2023/11/10 05:37:38;;;;;;;19.75;11.38;;;;;;;4.93;63.24;95163.16;5012938;28;20452;-76
2023/11/10 05:40:06;;;;;;;22.75;12.23;;;;;;;4.96;63.23;95173.25;5012594;28;20069;-76
2023/11/10 05:42:31;;;;;;;24.48;12.52;;;;;;;5.00;63.17;95160.41;5025034;28;20112;-75
2023/11/10 05:44:56;;;;;;;19.77;12.63;;;;;;;5.07;63.21;95165.81;5030088;28;20114;-76
2023/11/10 05:47:22;;;;;;;25.23;13.02;;;;;;;5.09;63.27;95159.19;5034772;28;20400;-76
2023/11/10 05:49:47;;;;;;;19.95;11.73;;;;;;;5.10;63.58;95164.25;5026597;28;20454;-76
2023/11/10 05:52:13;;;;;;;21.42;13.90;;;;;;;5.17;63.37;95166.19;5006604;28;20116;-76
2023/11/10 05:54:42;;;;;;;19.27;13.18;;;;;;;5.22;63.22;95169.28;5019309;28;20108;-76
2023/11/10 05:57:07;;;;;;;20.38;12.60;;;;;;;5.20;62.97;95170.81;5005974;28;20485;-76
2023/11/10 05:59:33;;;;;;;24.38;14.23;;;;;;;5.26;63.08;95170.00;5017423;28;20026;-77
2023/11/10 06:01:58;;;;;;;35.53;13.95;;;;;;;5.32;62.91;95162.97;5013562;28;20117;-76
2023/11/10 06:04:24;;;;;;;24.83;13.35;;;;;;;5.40;62.68;95166.47;5044746;28;20055;-75
2023/11/10 06:06:50;;;;;;;22.85;15.32;;;;;;;5.41;62.62;95187.09;5037635;28;20104;-76
2023/11/10 06:09:19;;;;;;;25.98;14.00;;;;;;;5.48;62.52;95173.41;5040454;28;20073;-76
2023/11/10 06:11:45;;;;;;;23.58;13.07;;;;;;;5.59;62.17;95167.91;5024908;28;20048;-75
2023/11/10 06:14:11;;;;;;;21.58;12.95;;;;;;;5.65;62.24;95179.94;5025185;28;20034;-76
2023/11/10 06:16:42;;;;;;;20.40;11.07;;;;;;;5.71;61.81;95180.31;5005708;28;20033;-76
2023/11/10 06:19:07;;;;;;;22.40;12.93;;;;;;;5.74;61.94;95188.47;5003713;28;20066;-75
2023/11/10 06:21:34;;;;;;;18.95;13.63;;;;;;;5.83;61.48;95166.19;5039338;28;20591;-75
2023/11/10 06:23:59;;;;;;;24.27;14.93;;;;;;;5.88;61.52;95165.75;5040366;28;20100;-76
2023/11/10 06:26:25;;;;;;;31.45;14.65;;;;;;;5.92;61.39;95174.75;5024603;28;20231;-75
2023/11/10 06:28:51;;;;;;;26.98;15.27;;;;;;;5.99;61.48;95176.63;5009253;28;20038;-74
2023/11/10 06:31:20;;;;;;;25.65;15.32;;;;;;;6.09;60.98;95182.03;5028476;28;20121;-75
2023/11/10 06:33:49;;;;;;;31.95;17.58;;;;;;;6.25;60.66;95176.06;5027877;28;20029;-75
2023/11/10 06:36:16;;;;;;;29.40;16.42;;;;;;;6.21;60.75;95169.84;5014905;28;20514;-75
2023/11/10 06:38:42;;;;;;;22.63;13.52;;;;;;;6.32;60.45;95175.97;5017112;28;20099;-75
2023/11/10 06:41:08;;;;;;;26.17;13.65;;;;;;;6.33;60.25;95166.59;5009548;28;20124;-74
2023/11/10 06:43:33;;;;;;;23.65;12.73;;;;;;;6.35;60.21;95152.53;5019696;28;20036;-74
2023/11/10 06:45:59;;;;;;;20.38;12.50;;;;;;;6.53;59.68;95166.81;5015054;28;20045;-75
2023/11/10 06:48:24;;;;;;;24.73;12.93;;;;;;;6.59;59.32;95148.03;5008413;28;20209;-75
2023/11/10 06:50:49;;;;;;;22.02;12.90;;;;;;;6.70;59.26;95161.56;5039519;28;20034;-74
2023/11/10 06:53:15;;;;;;;18.88;12.48;;;;;;;6.74;58.87;95156.84;5042909;28;20025;-74
2023/11/10 06:55:40;;;;;;;23.73;12.75;;;;;;;6.83;58.57;95157.94;5026979;28;20101;-74
2023/11/10 06:58:07;;;;;;;18.67;12.52;;;;;;;6.93;58.37;95164.44;5043835;28;20025;-74
2023/11/10 07:00:32;;;;;;;22.48;12.18;;;;;;;7.04;58.01;95161.59;5019113;28;20022;-73
2023/11/10 07:02:59;;;;;;;21.35;13.00;;;;;;;7.09;57.72;95148.25;5025811;28;20510;-73
2023/11/10 07:05:28;;;;;;;19.05;11.65;;;;;;;7.24;57.49;95137.16;5024848;28;20030;-74
2023/11/10 07:07:54;;;;;;;23.13;12.68;;;;;;;7.37;56.99;95135.41;5007932;28;20439;-73
2023/11/10 07:10:20;;;;;;;21.60;12.18;;;;;;;7.39;56.85;95130.28;5008151;28;20030;-75
2023/11/10 07:12:45;;;;;;;19.02;10.57;;;;;;;7.51;56.85;95126.22;5007736;28;20034;-74
2023/11/10 07:15:11;;;;;;;20.33;13.45;;;;;;;7.59;56.39;95133.94;5008555;28;20049;-74
2023/11/10 07:17:36;;;;;;;20.23;11.98;;;;;;;7.73;56.01;95130.22;5038709;28;20065;-75
2023/11/10 07:20:09;;;;;;;21.27;12.60;;;;;;;7.79;55.81;95136.75;5007715;28;20428;-75
2023/11/10 07:22:36;;;;;;;15.93;10.15;;;;;;;7.94;55.40;95123.66;5007338;28;20104;-74
2023/11/10 07:25:03;;;;;;;17.50;10.82;;;;;;;8.11;54.92;95113.59;5007494;28;20025;-75
2023/11/10 07:27:28;;;;;;;19.80;11.57;;;;;;;8.36;54.52;95118.69;5039061;28;20571;-75
2023/11/10 07:29:54;;;;;;;24.02;12.35;;;;;;;8.55;54.14;95123.44;5038757;28;20030;-75
2023/11/10 07:32:19;;;;;;;20.58;10.65;;;;;;;8.78;53.64;95120.66;5008132;28;20311;-74
2023/11/10 07:34:45;;;;;;;18.10;10.93;;;;;;;9.05;52.83;95128.75;5006848;28;20401;-74
2023/11/10 07:37:10;;;;;;;17.25;10.90;;;;;;;9.39;52.14;95122.16;5008012;28;20033;-74
2023/11/10 07:39:36;;;;;;;20.42;11.60;;;;;;;9.70;51.58;95130.94;5038379;28;20432;-74
2023/11/10 07:42:03;;;;;;;16.92;11.23;;;;;;;10.10;50.63;95117.84;5005978;28;20037;-74
2023/11/10 07:44:29;;;;;;;17.13;10.27;;;;;;;10.53;49.50;95135.25;5038631;28;20048;-74
2023/11/10 07:46:54;;;;;;;14.00;10.15;;;;;;;11.16;48.24;95123.75;5038628;28;20337;-75
2023/11/10 07:49:20;;;;;;;17.48;10.32;;;;;;;11.91;45.82;95121.56;5007613;28;20026;-74
2023/11/10 07:51:46;;;;;;;17.13;10.20;;;;;;;13.09;43.64;95104.66;5005297;28;20100;-74
2023/11/10 07:54:17;;;;;;;16.23;10.07;;;;;;;13.99;41.40;95119.47;5008002;28;20026;-74
2023/11/10 07:56:44;;;;;;;18.00;10.55;;;;;;;14.93;39.22;95116.47;5006546;28;20526;-75
2023/11/10 07:59:09;;;;;;;12.55;8.43;;;;;;;15.79;37.28;95105.91;5005820;28;20080;-74
2023/11/10 08:01:34;;;;;;;10.23;7.15;;;;;;;16.54;36.37;95096.00;5005501;28;20400;-74
2023/11/10 08:04:00;;;;;;;13.27;8.27;;;;;;;17.12;35.19;95098.22;5006814;28;20101;-76
2023/11/10 08:06:26;;;;;;;12.65;8.07;;;;;;;17.52;34.17;95096.94;5007512;28;20022;-73
2023/11/10 08:08:52;;;;;;;14.32;8.02;;;;;;;17.45;34.05;95114.00;5006135;28;20628;-73
2023/11/10 08:11:17;;;;;;;10.85;7.85;;;;;;;17.25;34.07;95095.16;5007286;28;20045;-74
2023/11/10 08:13:43;;;;;;;12.10;8.38;;;;;;;16.79;35.22;95105.88;5037696;28;20018;-73
2023/11/10 08:16:09;;;;;;;13.50;7.93;;;;;;;16.61;35.19;95095.66;5039110;28;20033;-73
2023/11/10 08:18:34;;;;;;;12.15;7.82;;;;;;;16.25;36.03;95089.06;5005972;28;20540;-73
2023/11/10 08:21:00;;;;;;;11.65;7.53;;;;;;;15.95;36.39;95088.13;5006329;28;20052;-74
2023/11/10 08:23:25;;;;;;;11.93;8.68;;;;;;;15.65;37.17;95085.16;5006696;28;20038;-73
2023/11/10 08:25:51;;;;;;;11.45;9.15;;;;;;;15.37;37.89;95089.97;5006112;28;20470;-74
2023/11/10 08:28:17;;;;;;;10.52;8.23;;;;;;;15.12;38.27;95093.06;5006809;28;20477;-73
2023/11/10 08:30:43;;;;;;;12.77;8.57;;;;;;;14.94;38.25;95084.78;5037358;28;20436;-73
2023/11/10 08:33:10;;;;;;;12.30;9.02;;;;;;;14.58;38.68;95087.06;5038570;28;20030;-73
2023/11/10 08:35:37;;;;;;;12.40;8.65;;;;;;;14.36;39.50;95067.03;5005899;28;20083;-74
2023/11/10 08:38:03;;;;;;;14.48;9.48;;;;;;;14.16;40.15;95066.66;5006378;28;20152;-73
2023/11/10 08:40:29;;;;;;;15.07;9.65;;;;;;;14.21;40.31;95066.06;5037876;28;20156;-75
2023/11/10 08:42:54;;;;;;;12.43;9.02;;;;;;;14.19;40.49;95072.06;5037378;28;20152;-74
2023/11/10 08:45:23;;;;;;;14.18;9.38;;;;;;;13.98;40.99;95062.63;5005153;28;20476;-74
2023/11/10 08:47:49;;;;;;;15.00;9.52;;;;;;;13.94;41.35;95066.78;5005808;28;20033;-74
2023/11/10 08:50:14;;;;;;;12.60;9.32;;;;;;;13.85;41.20;95059.22;5006897;28;20025;-74
2023/11/10 08:52:41;;;;;;;11.38;9.32;;;;;;;13.80;41.33;95073.63;5036933;28;20029;-74
2023/11/10 08:55:11;;;;;;;16.80;9.75;;;;;;;13.64;41.57;95062.78;5021414;28;20065;-74
2023/11/10 08:57:40;;;;;;;16.40;10.57;;;;;;;13.57;41.92;95060.31;5004624;28;20030;-74
2023/11/10 09:00:11;;;;;;;12.77;8.27;;;;;;;13.46;42.25;95067.00;5037345;28;20018;-75
2023/11/10 09:02:39;;;;;;;11.55;8.00;;;;;;;13.36;42.28;95057.16;5006213;28;20045;-74
2023/11/10 09:05:11;;;;;;;11.43;7.65;;;;;;;13.21;42.58;95043.09;5036801;28;20022;-74
2023/11/10 09:07:38;;;;;;;16.15;8.48;;;;;;;13.17;43.10;95053.47;5037325;28;20034;-74
2023/11/10 09:10:04;;;;;;;16.08;8.73;;;;;;;13.14;43.28;95040.59;5036890;28;20034;-74
2023/11/10 09:12:32;;;;;;;14.23;8.32;;;;;;;13.19;43.15;95039.22;5037884;28;20156;-75
2023/11/10 09:14:58;;;;;;;9.60;7.15;;;;;;;13.07;42.74;95031.78;5037234;28;20030;-75
2023/11/10 09:17:23;;;;;;;9.60;6.65;;;;;;;13.01;43.04;95035.13;5006066;28;20026;-74
2023/11/10 09:19:48;;;;;;;8.90;7.05;;;;;;;12.97;43.48;95028.97;5005557;28;20092;-75
2023/11/10 09:22:14;;;;;;;7.97;6.63;;;;;;;12.87;43.77;95018.34;5005393;28;20028;-74
2023/11/10 09:24:41;;;;;;;11.60;7.72;;;;;;;12.80;44.17;95013.06;5006294;28;20101;-75
2023/11/10 09:27:06;;;;;;;11.25;7.63;;;;;;;12.65;44.74;95013.56;5036738;28;20026;-76
2023/11/10 09:29:32;;;;;;;9.57;7.40;;;;;;;12.54;45.25;95009.66;5006195;28;20049;-75
2023/11/10 09:31:58;;;;;;;11.85;7.68;;;;;;;12.30;45.75;95001.03;5005350;28;20084;-75
2023/11/10 09:34:25;;;;;;;11.05;8.48;;;;;;;12.10;46.38;94993.03;5005792;28;20026;-76
2023/11/10 09:36:51;;;;;;;11.75;8.70;;;;;;;12.02;46.94;95000.78;5005667;28;20033;-76
2023/11/10 09:39:16;;;;;;;11.70;8.32;;;;;;;11.96;46.92;94997.06;5036845;28;20086;-75
2023/11/10 09:41:46;;;;;;;12.48;7.68;;;;;;;11.75;47.63;94992.97;5004564;28;20026;-75
2023/11/10 09:44:13;;;;;;;11.48;8.05;;;;;;;11.75;48.03;95000.47;5036741;28;20089;-74
2023/11/10 09:46:40;;;;;;;12.13;7.80;;;;;;;11.64;48.19;94998.06;5037867;28;20381;-75
2023/11/10 09:49:07;;;;;;;9.90;7.38;;;;;;;11.64;48.27;94987.03;5004951;28;20026;-75
2023/11/10 09:51:33;;;;;;;15.13;8.93;;;;;;;11.71;48.28;94978.56;5004269;28;20108;-75
2023/11/10 09:53:59;;;;;;;15.98;8.75;;;;;;;11.69;48.62;94986.47;5005235;28;20040;-75
2023/11/10 09:56:25;;;;;;;13.30;8.25;;;;;;;11.72;48.43;94976.59;5004040;28;20019;-75
2023/11/10 09:58:51;;;;;;;11.63;7.85;;;;;;;11.69;48.32;94962.47;5004488;28;20104;-75
2023/11/10 10:01:16;;;;;;;10.68;7.72;;;;;;;11.73;48.58;94967.88;5004836;28;20470;-75
2023/11/10 10:03:42;;;;;;;12.07;8.05;;;;;;;11.73;48.51;94954.09;5038143;28;20026;-75
2023/11/10 10:06:09;;;;;;;10.52;7.80;;;;;;;11.77;48.32;94943.75;5040223;28;20123;-75
2023/11/10 10:08:35;;;;;;;13.05;8.80;;;;;;;11.84;48.09;94940.00;5042042;28;20099;-80
2023/11/10 10:11:02;;;;;;;12.15;7.43;;;;;;;11.79;47.88;94930.28;5007083;28;20040;-75
2023/11/10 10:13:28;;;;;;;11.05;7.40;;;;;;;11.76;48.15;94917.44;5006128;28;20112;-74
2023/11/10 10:15:54;;;;;;;10.57;6.35;;;;;;;11.79;47.92;94913.75;5008994;28;20080;-76
2023/11/10 10:18:22;;;;;;;8.60;6.45;;;;;;;11.82;47.71;94923.16;5006296;28;20091;-75
2023/11/10 10:20:48;;;;;;;7.95;5.85;;;;;;;11.92;47.53;94906.25;5039435;28;20550;-74
2023/11/10 10:23:15;;;;;;;7.85;5.65;;;;;;;12.01;47.68;94891.81;5037771;28;20049;-73
2023/11/10 10:25:40;;;;;;;8.65;5.97;;;;;;;12.17;47.19;94899.88;5009298;28;20483;-75
2023/11/10 10:28:06;;;;;;;8.57;5.88;;;;;;;12.35;46.92;94892.97;5008221;28;20496;-74
2023/11/10 10:30:32;;;;;;;10.70;6.45;;;;;;;12.53;46.71;94890.31;5007462;28;20057;-73
2023/11/10 10:32:58;;;;;;;8.32;5.65;;;;;;;12.62;46.36;94871.09;5040260;28;20062;-74
2023/11/10 10:35:24;;;;;;;7.93;5.13;;;;;;;12.95;45.27;94871.38;5008127;28;20036;-74
2023/11/10 10:37:53;;;;;;;6.32;4.80;;;;;;;13.40;44.05;94874.78;5008850;28;20559;-74
2023/11/10 10:40:19;;;;;;;6.43;5.10;;;;;;;13.80;43.27;94864.41;5039194;28;20053;-74
2023/11/10 10:42:44;;;;;;;7.32;5.03;;;;;;;13.81;43.21;94865.16;5009037;28;20465;-74
2023/11/10 10:45:13;;;;;;;6.00;4.80;;;;;;;15.51;40.21;94855.06;5007951;28;20061;-74
2023/11/10 10:47:39;;;;;;;9.75;4.47;;;;;;;17.66;36.22;94845.22;5008802;28;20065;-74
2023/11/10 10:50:10;;;;;;;7.30;4.35;;;;;;;19.35;32.64;94843.66;5008320;28;20033;-74
2023/11/10 10:52:36;;;;;;;6.57;4.43;;;;;;;19.19;33.45;94838.72;5039814;28;20084;-74
2023/11/10 10:55:05;;;;;;;7.60;4.18;;;;;;;18.18;34.74;94837.00;5008660;28;20026;-74
2023/11/10 10:57:33;;;;;;;5.32;3.92;;;;;;;19.22;33.17;94842.56;5007539;28;20040;-74
2023/11/10 11:00:00;;;;;;;5.25;4.15;;;;;;;19.22;32.81;94834.19;5008780;28;20049;-74
2023/11/10 11:02:26;;;;;;;6.50;4.10;;;;;;;21.21;29.60;94834.59;5007377;28;20029;-75
2023/11/10 11:04:53;;;;;;;5.82;4.10;;;;;;;19.79;31.25;94830.50;5039998;28;20424;-75
2023/11/10 11:07:56;;;;;;;6.65;4.30;;;;;;;20.76;30.32;94830.28;5006631;28;20072;-75
2023/11/10 11:10:46;;;;;;;5.45;4.05;;;;;;;19.74;32.08;94822.88;5007309;28;20480;-75
2023/11/10 11:13:15;;;;;;;9.63;4.22;;;;;;;19.01;33.37;94825.94;5008299;28;20056;-75
2023/11/10 11:16:02;;;;;;;5.93;4.90;;;;;;;18.66;33.89;94823.34;5006957;28;20018;-75
2023/11/10 11:18:52;;;;;;;7.28;5.18;;;;;;;18.61;33.83;94823.28;5007243;28;20030;-75
2023/11/10 11:21:19;;;;;;;11.80;5.78;;;;;;;18.21;33.92;94819.34;5005261;28;20054;-75
2023/11/10 11:23:50;;;;;;;8.07;5.82;;;;;;;18.01;34.65;94804.25;5007494;28;20030;-75
2023/11/10 11:26:16;;;;;;;5.93;4.22;;;;;;;17.94;34.68;94798.31;5008133;28;20493;-75